sensor_id;sensor_type;location;lat;lon;timestamp;P1;durP1;ratioP1;P2;durP2;ratioP2
60014;SDS011;45867;52.480;6.056;2023-04-25T00:01:10;22.65;;;4.32;;
60014;SDS011;45867;52.480;6.056;2023-04-25T00:03:37;21.67;;;4.32;;
60014;SDS011;45867;52.480;6.056;2023-04-25T00:06:03;22.67;;;3.88;;
60014;SDS011;45867;52.480;6.056;2023-04-25T00:08:29;27.08;;;4.93;;
60014;SDS011;45867;52.480;6.056;2023-04-25T00:10:56;17.27;;;4.60;;
60014;SDS011;45867;52.480;6.056;2023-04-25T00:13:27;28.92;;;4.68;;
60014;SDS011;45867;52.480;6.056;2023-04-25T00:15:52;17.83;;;4.32;;
60014;SDS011;45867;52.480;6.056;2023-04-25T00:18:18;19.23;;;4.50;;
60014;SDS011;45867;52.480;6.056;2023-04-25T00:20:45;21.42;;;4.45;;
60014;SDS011;45867;52.480;6.056;2023-04-25T00:23:12;16.13;;;4.30;;
60014;SDS011;45867;52.480;6.056;2023-04-25T00:25:43;24.13;;;5.05;;
60014;SDS011;45867;52.480;6.056;2023-04-25T00:28:12;15.85;;;3.63;;
60014;SDS011;45867;52.480;6.056;2023-04-25T00:30:38;24.77;;;4.40;;
60014;SDS011;45867;52.480;6.056;2023-04-25T00:33:04;21.83;;;4.40;;
60014;SDS011;45867;52.480;6.056;2023-04-25T00:35:29;26.83;;;4.22;;
60014;SDS011;45867;52.480;6.056;2023-04-25T00:37:55;23.02;;;4.35;;
60014;SDS011;45867;52.480;6.056;2023-04-25T00:40:20;22.38;;;4.20;;
60014;SDS011;45867;52.480;6.056;2023-04-25T00:42:46;16.90;;;4.20;;
60014;SDS011;45867;52.480;6.056;2023-04-25T00:45:13;21.60;;;4.57;;
60014;SDS011;45867;52.480;6.056;2023-04-25T00:47:42;23.65;;;4.45;;
60014;SDS011;45867;52.480;6.056;2023-04-25T00:50:07;27.73;;;4.88;;
60014;SDS011;45867;52.480;6.056;2023-04-25T00:52:34;25.27;;;5.22;;
60014;SDS011;45867;52.480;6.056;2023-04-25T00:54:59;20.73;;;3.92;;
60014;SDS011;45867;52.480;6.056;2023-04-25T00:57:25;23.88;;;4.35;;
60014;SDS011;45867;52.480;6.056;2023-04-25T00:59:51;32.50;;;4.65;;
60014;SDS011;45867;52.480;6.056;2023-04-25T01:02:18;17.65;;;3.70;;
60014;SDS011;45867;52.480;6.056;2023-04-25T01:04:45;31.77;;;4.60;;
60014;SDS011;45867;52.480;6.056;2023-04-25T01:07:11;18.80;;;3.88;;
60014;SDS011;45867;52.480;6.056;2023-04-25T01:09:37;20.08;;;4.18;;
60014;SDS011;45867;52.480;6.056;2023-04-25T01:12:03;19.30;;;4.20;;
60014;SDS011;45867;52.480;6.056;2023-04-25T01:14:28;24.48;;;4.32;;
60014;SDS011;45867;52.480;6.056;2023-04-25T01:16:55;17.08;;;4.03;;
60014;SDS011;45867;52.480;6.056;2023-04-25T01:19:20;21.63;;;4.43;;
60014;SDS011;45867;52.480;6.056;2023-04-25T01:21:46;17.42;;;4.32;;
60014;SDS011;45867;52.480;6.056;2023-04-25T01:24:14;18.27;;;3.92;;
60014;SDS011;45867;52.480;6.056;2023-04-25T01:26:41;14.90;;;4.20;;
60014;SDS011;45867;52.480;6.056;2023-04-25T01:29:09;20.63;;;4.68;;
60014;SDS011;45867;52.480;6.056;2023-04-25T01:31:35;28.02;;;4.72;;
60014;SDS011;45867;52.480;6.056;2023-04-25T01:34:01;24.25;;;4.00;;
60014;SDS011;45867;52.480;6.056;2023-04-25T01:36:26;26.25;;;5.13;;
60014;SDS011;45867;52.480;6.056;2023-04-25T01:38:52;21.17;;;3.90;;
60014;SDS011;45867;52.480;6.056;2023-04-25T01:41:17;10.38;;;2.80;;
60014;SDS011;45867;52.480;6.056;2023-04-25T01:43:43;12.15;;;3.50;;
60014;SDS011;45867;52.480;6.056;2023-04-25T01:46:09;16.90;;;3.10;;
60014;SDS011;45867;52.480;6.056;2023-04-25T01:48:36;19.50;;;3.30;;
60014;SDS011;45867;52.480;6.056;2023-04-25T01:51:01;14.73;;;3.50;;
60014;SDS011;45867;52.480;6.056;2023-04-25T01:53:27;14.95;;;3.45;;
60014;SDS011;45867;52.480;6.056;2023-04-25T01:55:53;10.85;;;2.65;;
60014;SDS011;45867;52.480;6.056;2023-04-25T01:58:18;18.17;;;3.88;;
60014;SDS011;45867;52.480;6.056;2023-04-25T02:00:44;19.92;;;3.60;;
60014;SDS011;45867;52.480;6.056;2023-04-25T02:03:12;11.98;;;3.33;;
60014;SDS011;45867;52.480;6.056;2023-04-25T02:05:38;15.23;;;3.05;;
60014;SDS011;45867;52.480;6.056;2023-04-25T02:08:04;10.10;;;3.05;;
60014;SDS011;45867;52.480;6.056;2023-04-25T02:10:31;9.05;;;2.97;;
60014;SDS011;45867;52.480;6.056;2023-04-25T02:12:57;13.85;;;3.38;;
60014;SDS011;45867;52.480;6.056;2023-04-25T02:15:23;19.13;;;3.33;;
60014;SDS011;45867;52.480;6.056;2023-04-25T02:17:48;11.05;;;3.03;;
60014;SDS011;45867;52.480;6.056;2023-04-25T02:20:16;14.52;;;3.45;;
60014;SDS011;45867;52.480;6.056;2023-04-25T02:22:42;14.73;;;3.05;;
60014;SDS011;45867;52.480;6.056;2023-04-25T02:25:08;16.73;;;3.08;;
60014;SDS011;45867;52.480;6.056;2023-04-25T02:27:34;13.18;;;3.40;;
60014;SDS011;45867;52.480;6.056;2023-04-25T02:29:59;11.60;;;3.22;;
60014;SDS011;45867;52.480;6.056;2023-04-25T02:32:25;15.00;;;3.13;;
60014;SDS011;45867;52.480;6.056;2023-04-25T02:34:54;20.63;;;3.30;;
60014;SDS011;45867;52.480;6.056;2023-04-25T02:37:20;21.77;;;3.42;;
60014;SDS011;45867;52.480;6.056;2023-04-25T02:39:45;17.15;;;3.38;;
60014;SDS011;45867;52.480;6.056;2023-04-25T02:42:11;11.52;;;3.35;;
60014;SDS011;45867;52.480;6.056;2023-04-25T02:44:36;15.40;;;3.28;;
60014;SDS011;45867;52.480;6.056;2023-04-25T02:47:01;23.10;;;3.20;;
60014;SDS011;45867;52.480;6.056;2023-04-25T02:49:27;11.65;;;3.08;;
60014;SDS011;45867;52.480;6.056;2023-04-25T02:51:52;14.48;;;3.85;;
60014;SDS011;45867;52.480;6.056;2023-04-25T02:54:18;13.02;;;3.45;;
60014;SDS011;45867;52.480;6.056;2023-04-25T02:56:43;19.75;;;4.15;;
60014;SDS011;45867;52.480;6.056;2023-04-25T02:59:09;17.70;;;3.95;;
60014;SDS011;45867;52.480;6.056;2023-04-25T03:01:36;13.77;;;3.95;;
60014;SDS011;45867;52.480;6.056;2023-04-25T03:04:05;22.27;;;4.05;;
60014;SDS011;45867;52.480;6.056;2023-04-25T03:06:36;12.80;;;3.65;;
60014;SDS011;45867;52.480;6.056;2023-04-25T03:09:01;19.13;;;3.72;;
60014;SDS011;45867;52.480;6.056;2023-04-25T03:11:30;15.05;;;3.75;;
60014;SDS011;45867;52.480;6.056;2023-04-25T03:13:55;14.68;;;3.45;;
60014;SDS011;45867;52.480;6.056;2023-04-25T03:16:21;23.88;;;4.10;;
60014;SDS011;45867;52.480;6.056;2023-04-25T03:18:52;15.63;;;3.77;;
60014;SDS011;45867;52.480;6.056;2023-04-25T03:21:17;16.27;;;3.38;;
60014;SDS011;45867;52.480;6.056;2023-04-25T03:23:42;15.35;;;3.55;;
60014;SDS011;45867;52.480;6.056;2023-04-25T03:26:08;13.70;;;3.80;;
60014;SDS011;45867;52.480;6.056;2023-04-25T03:28:33;16.65;;;3.35;;
60014;SDS011;45867;52.480;6.056;2023-04-25T03:31:01;18.98;;;3.22;;
60014;SDS011;45867;52.480;6.056;2023-04-25T03:33:27;18.17;;;3.53;;
60014;SDS011;45867;52.480;6.056;2023-04-25T03:35:52;20.70;;;3.90;;
60014;SDS011;45867;52.480;6.056;2023-04-25T03:38:18;17.70;;;3.45;;
60014;SDS011;45867;52.480;6.056;2023-04-25T03:40:43;19.48;;;4.03;;
60014;SDS011;45867;52.480;6.056;2023-04-25T03:43:11;29.52;;;3.70;;
60014;SDS011;45867;52.480;6.056;2023-04-25T03:45:37;18.17;;;2.97;;
60014;SDS011;45867;52.480;6.056;2023-04-25T03:48:02;24.15;;;3.50;;
60014;SDS011;45867;52.480;6.056;2023-04-25T03:50:28;20.58;;;3.47;;
60014;SDS011;45867;52.480;6.056;2023-04-25T03:52:53;19.70;;;3.30;;
60014;SDS011;45867;52.480;6.056;2023-04-25T03:55:19;18.92;;;3.03;;
60014;SDS011;45867;52.480;6.056;2023-04-25T03:57:44;23.45;;;3.83;;
60014;SDS011;45867;52.480;6.056;2023-04-25T04:00:10;20.70;;;3.97;;
60014;SDS011;45867;52.480;6.056;2023-04-25T04:02:36;18.45;;;3.45;;
60014;SDS011;45867;52.480;6.056;2023-04-25T04:05:03;19.83;;;3.88;;
60014;SDS011;45867;52.480;6.056;2023-04-25T04:07:29;12.32;;;3.20;;
60014;SDS011;45867;52.480;6.056;2023-04-25T04:09:58;13.43;;;3.70;;
60014;SDS011;45867;52.480;6.056;2023-04-25T04:14:56;16.50;;;3.25;;
60014;SDS011;45867;52.480;6.056;2023-04-25T04:17:25;16.27;;;3.10;;
60014;SDS011;45867;52.480;6.056;2023-04-25T04:19:53;23.20;;;3.38;;
60014;SDS011;45867;52.480;6.056;2023-04-25T04:25:57;23.40;;;3.13;;
60014;SDS011;45867;52.480;6.056;2023-04-25T04:28:51;11.75;;;3.05;;
60014;SDS011;45867;52.480;6.056;2023-04-25T04:32:05;18.10;;;3.65;;
60014;SDS011;45867;52.480;6.056;2023-04-25T04:39:10;15.35;;;2.97;;
60014;SDS011;45867;52.480;6.056;2023-04-25T04:46:09;20.95;;;2.95;;
60014;SDS011;45867;52.480;6.056;2023-04-25T04:48:51;17.88;;;3.28;;
60014;SDS011;45867;52.480;6.056;2023-04-25T04:55:05;13.55;;;2.70;;
60014;SDS011;45867;52.480;6.056;2023-04-25T05:00:50;15.88;;;3.08;;
60014;SDS011;45867;52.480;6.056;2023-04-25T05:03:46;13.73;;;2.20;;
60014;SDS011;45867;52.480;6.056;2023-04-25T05:09:29;15.32;;;2.30;;
60014;SDS011;45867;52.480;6.056;2023-04-25T05:16:40;15.45;;;2.60;;
60014;SDS011;45867;52.480;6.056;2023-04-25T05:27:18;13.85;;;2.65;;
60014;SDS011;45867;52.480;6.056;2023-04-25T05:30:19;12.57;;;2.42;;
60014;SDS011;45867;52.480;6.056;2023-04-25T05:33:46;10.10;;;2.25;;
60014;SDS011;45867;52.480;6.056;2023-04-25T05:39:20;9.05;;;2.28;;
60014;SDS011;45867;52.480;6.056;2023-04-25T05:41:55;14.80;;;2.50;;
60014;SDS011;45867;52.480;6.056;2023-04-25T05:50:36;12.38;;;2.60;;
60014;SDS011;45867;52.480;6.056;2023-04-25T06:02:42;22.40;;;2.85;;
60014;SDS011;45867;52.480;6.056;2023-04-25T06:19:47;14.85;;;2.70;;
60014;SDS011;45867;52.480;6.056;2023-04-25T06:30:37;14.60;;;2.22;;
60014;SDS011;45867;52.480;6.056;2023-04-25T06:37:25;15.85;;;1.98;;
60014;SDS011;45867;52.480;6.056;2023-04-25T06:40:34;14.45;;;2.00;;
60014;SDS011;45867;52.480;6.056;2023-04-25T06:43:00;10.75;;;2.10;;
60014;SDS011;45867;52.480;6.056;2023-04-25T06:46:06;10.93;;;2.25;;
60014;SDS011;45867;52.480;6.056;2023-04-25T06:48:31;7.13;;;2.00;;
60014;SDS011;45867;52.480;6.056;2023-04-25T06:51:21;12.02;;;2.15;;
60014;SDS011;45867;52.480;6.056;2023-04-25T06:53:54;14.57;;;2.50;;
60014;SDS011;45867;52.480;6.056;2023-04-25T06:56:51;11.38;;;2.47;;
60014;SDS011;45867;52.480;6.056;2023-04-25T07:00:07;14.52;;;2.10;;
60014;SDS011;45867;52.480;6.056;2023-04-25T07:02:58;14.05;;;2.63;;
60014;SDS011;45867;52.480;6.056;2023-04-25T07:06:01;13.63;;;1.73;;
60014;SDS011;45867;52.480;6.056;2023-04-25T07:12:39;11.20;;;1.98;;
60014;SDS011;45867;52.480;6.056;2023-04-25T07:15:57;5.80;;;1.20;;
60014;SDS011;45867;52.480;6.056;2023-04-25T07:22:00;3.30;;;0.98;;
60014;SDS011;45867;52.480;6.056;2023-04-25T07:24:46;2.97;;;1.25;;
60014;SDS011;45867;52.480;6.056;2023-04-25T07:27:18;11.65;;;1.63;;
60014;SDS011;45867;52.480;6.056;2023-04-25T07:33:31;4.20;;;1.50;;
60014;SDS011;45867;52.480;6.056;2023-04-25T07:36:47;4.45;;;1.58;;
60014;SDS011;45867;52.480;6.056;2023-04-25T07:39:56;8.10;;;2.00;;
60014;SDS011;45867;52.480;6.056;2023-04-25T07:42:58;9.90;;;1.83;;
60014;SDS011;45867;52.480;6.056;2023-04-25T07:49:05;5.22;;;1.35;;
60014;SDS011;45867;52.480;6.056;2023-04-25T07:52:15;5.68;;;1.42;;
60014;SDS011;45867;52.480;6.056;2023-04-25T07:55:08;5.82;;;1.42;;
60014;SDS011;45867;52.480;6.056;2023-04-25T07:57:48;7.68;;;1.60;;
60014;SDS011;45867;52.480;6.056;2023-04-25T08:06:30;7.45;;;2.17;;
60014;SDS011;45867;52.480;6.056;2023-04-25T08:17:27;12.55;;;2.08;;
60014;SDS011;45867;52.480;6.056;2023-04-25T08:20:57;12.32;;;2.25;;
60014;SDS011;45867;52.480;6.056;2023-04-25T08:23:46;4.70;;;1.52;;
60014;SDS011;45867;52.480;6.056;2023-04-25T08:26:45;6.90;;;1.90;;
60014;SDS011;45867;52.480;6.056;2023-04-25T08:29:13;12.70;;;1.92;;
60014;SDS011;45867;52.480;6.056;2023-04-25T08:34:44;7.32;;;1.77;;
60014;SDS011;45867;52.480;6.056;2023-04-25T08:40:32;7.55;;;1.48;;
60014;SDS011;45867;52.480;6.056;2023-04-25T08:43:30;4.97;;;1.77;;
60014;SDS011;45867;52.480;6.056;2023-04-25T08:46:11;11.68;;;1.90;;
60014;SDS011;45867;52.480;6.056;2023-04-25T08:49:24;7.10;;;1.70;;
60014;SDS011;45867;52.480;6.056;2023-04-25T08:52:20;12.70;;;2.08;;
60014;SDS011;45867;52.480;6.056;2023-04-25T09:08:52;11.77;;;1.55;;
60014;SDS011;45867;52.480;6.056;2023-04-25T09:11:43;11.30;;;1.90;;
60014;SDS011;45867;52.480;6.056;2023-04-25T09:21:57;6.97;;;1.80;;
60014;SDS011;45867;52.480;6.056;2023-04-25T09:24:54;5.80;;;1.55;;
60014;SDS011;45867;52.480;6.056;2023-04-25T09:27:20;4.57;;;1.58;;
60014;SDS011;45867;52.480;6.056;2023-04-25T09:30:13;9.25;;;1.67;;
60014;SDS011;45867;52.480;6.056;2023-04-25T09:36:46;13.15;;;1.73;;
60014;SDS011;45867;52.480;6.056;2023-04-25T09:39:39;6.15;;;1.42;;
60014;SDS011;45867;52.480;6.056;2023-04-25T09:42:05;7.35;;;1.63;;
60014;SDS011;45867;52.480;6.056;2023-04-25T09:44:38;11.52;;;2.10;;
60014;SDS011;45867;52.480;6.056;2023-04-25T09:47:11;7.75;;;2.08;;
60014;SDS011;45867;52.480;6.056;2023-04-25T09:49:39;18.75;;;2.22;;
60014;SDS011;45867;52.480;6.056;2023-04-25T09:52:08;12.93;;;2.13;;
60014;SDS011;45867;52.480;6.056;2023-04-25T09:54:37;6.82;;;2.17;;
60014;SDS011;45867;52.480;6.056;2023-04-25T09:57:16;13.60;;;1.90;;
60014;SDS011;45867;52.480;6.056;2023-04-25T09:59:46;7.28;;;1.90;;
60014;SDS011;45867;52.480;6.056;2023-04-25T10:02:19;11.00;;;2.15;;
60014;SDS011;45867;52.480;6.056;2023-04-25T10:04:55;6.80;;;1.73;;
60014;SDS011;45867;52.480;6.056;2023-04-25T10:07:29;5.43;;;1.38;;
60014;SDS011;45867;52.480;6.056;2023-04-25T10:10:02;5.03;;;1.73;;
60014;SDS011;45867;52.480;6.056;2023-04-25T10:12:35;6.20;;;1.50;;
60014;SDS011;45867;52.480;6.056;2023-04-25T10:15:08;9.52;;;1.67;;
60014;SDS011;45867;52.480;6.056;2023-04-25T10:17:37;6.25;;;1.58;;
60014;SDS011;45867;52.480;6.056;2023-04-25T10:20:03;7.55;;;1.33;;
60014;SDS011;45867;52.480;6.056;2023-04-25T10:25:02;7.30;;;1.52;;
60014;SDS011;45867;52.480;6.056;2023-04-25T10:27:31;6.78;;;1.45;;
60014;SDS011;45867;52.480;6.056;2023-04-25T10:30:04;3.60;;;1.27;;
60014;SDS011;45867;52.480;6.056;2023-04-25T10:32:38;6.38;;;1.52;;
60014;SDS011;45867;52.480;6.056;2023-04-25T10:38:19;5.18;;;1.80;;
60014;SDS011;45867;52.480;6.056;2023-04-25T10:41:05;4.18;;;1.48;;
60014;SDS011;45867;52.480;6.056;2023-04-25T10:43:43;6.45;;;1.70;;
60014;SDS011;45867;52.480;6.056;2023-04-25T10:46:18;6.15;;;1.40;;
60014;SDS011;45867;52.480;6.056;2023-04-25T10:48:54;6.85;;;1.70;;
60014;SDS011;45867;52.480;6.056;2023-04-25T10:55:25;7.03;;;1.50;;
60014;SDS011;45867;52.480;6.056;2023-04-25T10:58:25;5.07;;;1.30;;
60014;SDS011;45867;52.480;6.056;2023-04-25T11:01:12;7.22;;;1.63;;
60014;SDS011;45867;52.480;6.056;2023-04-25T11:04:53;8.40;;;1.50;;
60014;SDS011;45867;52.480;6.056;2023-04-25T11:15:55;12.70;;;1.98;;
60014;SDS011;45867;52.480;6.056;2023-04-25T11:19:23;12.07;;;1.80;;
60014;SDS011;45867;52.480;6.056;2023-04-25T11:29:46;9.30;;;2.17;;
60014;SDS011;45867;52.480;6.056;2023-04-25T11:32:38;5.22;;;1.10;;
60014;SDS011;45867;52.480;6.056;2023-04-25T11:35:05;6.68;;;1.65;;
60014;SDS011;45867;52.480;6.056;2023-04-25T11:37:41;5.80;;;1.63;;
60014;SDS011;45867;52.480;6.056;2023-04-25T11:40:20;3.72;;;1.20;;
60014;SDS011;45867;52.480;6.056;2023-04-25T11:43:10;6.07;;;1.67;;
60014;SDS011;45867;52.480;6.056;2023-04-25T11:46:26;9.68;;;2.00;;
60014;SDS011;45867;52.480;6.056;2023-04-25T11:52:29;4.28;;;1.27;;
60014;SDS011;45867;52.480;6.056;2023-04-25T11:55:04;13.52;;;2.50;;
60014;SDS011;45867;52.480;6.056;2023-04-25T11:57:32;8.40;;;1.85;;
60014;SDS011;45867;52.480;6.056;2023-04-25T12:02:52;10.15;;;1.85;;
60014;SDS011;45867;52.480;6.056;2023-04-25T12:05:19;8.05;;;1.85;;
60014;SDS011;45867;52.480;6.056;2023-04-25T12:07:48;3.22;;;1.48;;
60014;SDS011;45867;52.480;6.056;2023-04-25T12:16:11;9.63;;;1.77;;
60014;SDS011;45867;52.480;6.056;2023-04-25T12:18:37;3.95;;;1.60;;
60014;SDS011;45867;52.480;6.056;2023-04-25T12:31:04;3.22;;;1.40;;
60014;SDS011;45867;52.480;6.056;2023-04-25T12:33:32;6.85;;;1.73;;
60014;SDS011;45867;52.480;6.056;2023-04-25T12:36:08;5.32;;;1.80;;
60014;SDS011;45867;52.480;6.056;2023-04-25T12:38:52;4.93;;;1.50;;
60014;SDS011;45867;52.480;6.056;2023-04-25T12:41:20;5.45;;;1.55;;
60014;SDS011;45867;52.480;6.056;2023-04-25T12:44:28;9.05;;;1.70;;
60014;SDS011;45867;52.480;6.056;2023-04-25T12:47:11;6.88;;;1.38;;
60014;SDS011;45867;52.480;6.056;2023-04-25T12:50:00;5.53;;;1.65;;
60014;SDS011;45867;52.480;6.056;2023-04-25T12:52:32;5.47;;;1.10;;
60014;SDS011;45867;52.480;6.056;2023-04-25T12:55:18;2.85;;;1.17;;
60014;SDS011;45867;52.480;6.056;2023-04-25T12:58:08;4.30;;;1.50;;
60014;SDS011;45867;52.480;6.056;2023-04-25T13:01:20;9.00;;;1.88;;
60014;SDS011;45867;52.480;6.056;2023-04-25T13:04:06;5.43;;;1.58;;
60014;SDS011;45867;52.480;6.056;2023-04-25T13:10:22;2.10;;;1.15;;
60014;SDS011;45867;52.480;6.056;2023-04-25T13:30:05;7.13;;;1.67;;
60014;SDS011;45867;52.480;6.056;2023-04-25T13:32:39;7.10;;;1.52;;
60014;SDS011;45867;52.480;6.056;2023-04-25T13:35:35;8.40;;;1.95;;
60014;SDS011;45867;52.480;6.056;2023-04-25T13:48:15;20.25;;;2.20;;
60014;SDS011;45867;52.480;6.056;2023-04-25T13:54:26;7.43;;;1.58;;
60014;SDS011;45867;52.480;6.056;2023-04-25T14:01:11;4.30;;;1.30;;
60014;SDS011;45867;52.480;6.056;2023-04-25T14:07:23;7.88;;;2.05;;
60014;SDS011;45867;52.480;6.056;2023-04-25T14:17:04;7.50;;;1.50;;
60014;SDS011;45867;52.480;6.056;2023-04-25T14:23:28;5.85;;;1.23;;
60014;SDS011;45867;52.480;6.056;2023-04-25T14:26:31;3.00;;;1.27;;
60014;SDS011;45867;52.480;6.056;2023-04-25T14:32:44;5.85;;;1.63;;
60014;SDS011;45867;52.480;6.056;2023-04-25T14:36:13;6.22;;;1.70;;
60014;SDS011;45867;52.480;6.056;2023-04-25T14:38:57;5.00;;;1.42;;
60014;SDS011;45867;52.480;6.056;2023-04-25T14:47:09;3.70;;;1.20;;
60014;SDS011;45867;52.480;6.056;2023-04-25T14:53:15;8.93;;;1.90;;
60014;SDS011;45867;52.480;6.056;2023-04-25T15:06:44;7.28;;;1.60;;
60014;SDS011;45867;52.480;6.056;2023-04-25T15:10:11;6.82;;;1.77;;
60014;SDS011;45867;52.480;6.056;2023-04-25T15:16:55;5.28;;;1.50;;
60014;SDS011;45867;52.480;6.056;2023-04-25T15:19:23;10.07;;;1.98;;
60014;SDS011;45867;52.480;6.056;2023-04-25T15:22:05;6.45;;;1.38;;
60014;SDS011;45867;52.480;6.056;2023-04-25T15:24:48;5.05;;;1.83;;
60014;SDS011;45867;52.480;6.056;2023-04-25T15:27:39;7.40;;;1.90;;
60014;SDS011;45867;52.480;6.056;2023-04-25T15:30:10;6.70;;;1.85;;
60014;SDS011;45867;52.480;6.056;2023-04-25T15:32:48;4.45;;;1.77;;
60014;SDS011;45867;52.480;6.056;2023-04-25T15:35:34;6.20;;;1.90;;
60014;SDS011;45867;52.480;6.056;2023-04-25T15:38:46;4.77;;;1.90;;
60014;SDS011;45867;52.480;6.056;2023-04-25T15:44:20;10.23;;;1.90;;
60014;SDS011;45867;52.480;6.056;2023-04-25T15:46:55;10.40;;;2.70;;
60014;SDS011;45867;52.480;6.056;2023-04-25T15:52:56;10.60;;;2.20;;
60014;SDS011;45867;52.480;6.056;2023-04-25T15:56:19;14.15;;;2.40;;
60014;SDS011;45867;52.480;6.056;2023-04-25T16:13:24;5.60;;;1.63;;
60014;SDS011;45867;52.480;6.056;2023-04-25T16:18:38;4.03;;;1.87;;
60014;SDS011;45867;52.480;6.056;2023-04-25T16:21:16;7.97;;;1.95;;
60014;SDS011;45867;52.480;6.056;2023-04-25T16:24:11;4.07;;;1.38;;
60014;SDS011;45867;52.480;6.056;2023-04-25T16:26:40;8.18;;;2.40;;
60014;SDS011;45867;52.480;6.056;2023-04-25T16:32:36;4.22;;;1.27;;
60014;SDS011;45867;52.480;6.056;2023-04-25T16:35:13;6.60;;;1.55;;
60014;SDS011;45867;52.480;6.056;2023-04-25T16:37:47;7.20;;;1.83;;
60014;SDS011;45867;52.480;6.056;2023-04-25T16:44:02;11.02;;;1.63;;
60014;SDS011;45867;52.480;6.056;2023-04-25T16:50:42;10.48;;;2.10;;
60014;SDS011;45867;52.480;6.056;2023-04-25T17:00:02;10.40;;;1.97;;
60014;SDS011;45867;52.480;6.056;2023-04-25T17:02:54;9.85;;;2.45;;
60014;SDS011;45867;52.480;6.056;2023-04-25T17:05:48;9.93;;;2.20;;
60014;SDS011;45867;52.480;6.056;2023-04-25T17:18:33;8.52;;;2.05;;
60014;SDS011;45867;52.480;6.056;2023-04-25T17:22:13;12.32;;;2.40;;
60014;SDS011;45867;52.480;6.056;2023-04-25T17:28:50;13.63;;;2.70;;
60014;SDS011;45867;52.480;6.056;2023-04-25T17:31:52;12.50;;;2.83;;
60014;SDS011;45867;52.480;6.056;2023-04-25T17:34:39;18.73;;;2.72;;
60014;SDS011;45867;52.480;6.056;2023-04-25T17:37:12;10.00;;;2.05;;
60014;SDS011;45867;52.480;6.056;2023-04-25T17:40:40;14.55;;;3.25;;
60014;SDS011;45867;52.480;6.056;2023-04-25T17:43:38;15.48;;;4.20;;
60014;SDS011;45867;52.480;6.056;2023-04-25T17:46:45;14.40;;;4.47;;
60014;SDS011;45867;52.480;6.056;2023-04-25T17:50:08;11.20;;;2.88;;
60014;SDS011;45867;52.480;6.056;2023-04-25T17:52:48;10.48;;;3.45;;
60014;SDS011;45867;52.480;6.056;2023-04-25T17:55:29;11.68;;;2.85;;
60014;SDS011;45867;52.480;6.056;2023-04-25T17:58:26;10.18;;;2.88;;
60014;SDS011;45867;52.480;6.056;2023-04-25T18:04:39;18.65;;;2.67;;
60014;SDS011;45867;52.480;6.056;2023-04-25T18:07:04;18.80;;;2.67;;
60014;SDS011;45867;52.480;6.056;2023-04-25T18:09:40;11.57;;;2.58;;
60014;SDS011;45867;52.480;6.056;2023-04-25T18:15:10;15.02;;;3.20;;
60014;SDS011;45867;52.480;6.056;2023-04-25T18:17:56;12.85;;;2.50;;
60014;SDS011;45867;52.480;6.056;2023-04-25T18:20:41;6.25;;;2.65;;
60014;SDS011;45867;52.480;6.056;2023-04-25T18:23:23;11.00;;;3.00;;
60014;SDS011;45867;52.480;6.056;2023-04-25T18:26:04;11.10;;;3.50;;
60014;SDS011;45867;52.480;6.056;2023-04-25T18:28:44;14.98;;;3.53;;
60014;SDS011;45867;52.480;6.056;2023-04-25T18:31:29;8.50;;;2.60;;
60014;SDS011;45867;52.480;6.056;2023-04-25T18:34:55;11.43;;;3.25;;
60014;SDS011;45867;52.480;6.056;2023-04-25T18:41:09;11.90;;;3.10;;
60014;SDS011;45867;52.480;6.056;2023-04-25T18:54:08;27.30;;;10.98;;
60014;SDS011;45867;52.480;6.056;2023-04-25T18:57:02;26.33;;;11.25;;
60014;SDS011;45867;52.480;6.056;2023-04-25T18:59:28;13.65;;;3.85;;
60014;SDS011;45867;52.480;6.056;2023-04-25T19:01:53;10.13;;;2.25;;
60014;SDS011;45867;52.480;6.056;2023-04-25T19:04:19;13.10;;;2.78;;
60014;SDS011;45867;52.480;6.056;2023-04-25T19:06:45;7.95;;;2.78;;
60014;SDS011;45867;52.480;6.056;2023-04-25T19:09:13;7.85;;;2.65;;
60014;SDS011;45867;52.480;6.056;2023-04-25T19:11:38;9.13;;;3.13;;
60014;SDS011;45867;52.480;6.056;2023-04-25T19:14:04;11.00;;;3.22;;
60014;SDS011;45867;52.480;6.056;2023-04-25T19:16:47;13.55;;;3.10;;
60014;SDS011;45867;52.480;6.056;2023-04-25T19:19:25;9.35;;;3.25;;
60014;SDS011;45867;52.480;6.056;2023-04-25T19:21:52;10.80;;;2.55;;
60014;SDS011;45867;52.480;6.056;2023-04-25T19:24:18;15.27;;;3.20;;
60014;SDS011;45867;52.480;6.056;2023-04-25T19:26:43;15.00;;;3.60;;
60014;SDS011;45867;52.480;6.056;2023-04-25T19:29:09;14.18;;;3.53;;
60014;SDS011;45867;52.480;6.056;2023-04-25T19:31:38;8.98;;;2.80;;
60014;SDS011;45867;52.480;6.056;2023-04-25T19:34:05;7.68;;;2.40;;
60014;SDS011;45867;52.480;6.056;2023-04-25T19:36:36;11.65;;;2.30;;
60014;SDS011;45867;52.480;6.056;2023-04-25T19:39:03;9.70;;;2.78;;
60014;SDS011;45867;52.480;6.056;2023-04-25T19:41:29;8.38;;;2.22;;
60014;SDS011;45867;52.480;6.056;2023-04-25T19:43:56;6.50;;;2.17;;
60014;SDS011;45867;52.480;6.056;2023-04-25T19:46:24;9.18;;;2.25;;
60014;SDS011;45867;52.480;6.056;2023-04-25T19:48:50;10.05;;;2.33;;
60014;SDS011;45867;52.480;6.056;2023-04-25T19:51:16;6.65;;;1.92;;
60014;SDS011;45867;52.480;6.056;2023-04-25T19:53:41;8.15;;;2.50;;
60014;SDS011;45867;52.480;6.056;2023-04-25T19:56:09;9.27;;;2.08;;
60014;SDS011;45867;52.480;6.056;2023-04-25T19:58:35;13.90;;;2.70;;
60014;SDS011;45867;52.480;6.056;2023-04-25T20:01:00;6.78;;;2.20;;
60014;SDS011;45867;52.480;6.056;2023-04-25T20:06:53;7.00;;;2.55;;
60014;SDS011;45867;52.480;6.056;2023-04-25T20:09:18;10.35;;;2.90;;
60014;SDS011;45867;52.480;6.056;2023-04-25T20:11:47;14.65;;;3.00;;
60014;SDS011;45867;52.480;6.056;2023-04-25T20:14:15;12.80;;;3.30;;
60014;SDS011;45867;52.480;6.056;2023-04-25T20:16:47;12.05;;;3.55;;
60014;SDS011;45867;52.480;6.056;2023-04-25T20:19:13;9.55;;;3.85;;
60014;SDS011;45867;52.480;6.056;2023-04-25T20:21:41;10.80;;;3.40;;
60014;SDS011;45867;52.480;6.056;2023-04-25T20:24:07;13.40;;;3.90;;
60014;SDS011;45867;52.480;6.056;2023-04-25T20:26:38;9.73;;;3.88;;
60014;SDS011;45867;52.480;6.056;2023-04-25T20:29:03;7.85;;;3.10;;
60014;SDS011;45867;52.480;6.056;2023-04-25T20:31:30;11.95;;;3.78;;
60014;SDS011;45867;52.480;6.056;2023-04-25T20:33:56;13.43;;;3.72;;
60014;SDS011;45867;52.480;6.056;2023-04-25T20:36:23;12.32;;;3.90;;
60014;SDS011;45867;52.480;6.056;2023-04-25T20:38:48;11.50;;;3.88;;
60014;SDS011;45867;52.480;6.056;2023-04-25T20:41:14;18.45;;;4.38;;
60014;SDS011;45867;52.480;6.056;2023-04-25T20:43:41;7.05;;;3.50;;
60014;SDS011;45867;52.480;6.056;2023-04-25T20:46:07;9.43;;;3.40;;
60014;SDS011;45867;52.480;6.056;2023-04-25T20:48:36;10.70;;;4.10;;
60014;SDS011;45867;52.480;6.056;2023-04-25T20:51:13;17.60;;;4.57;;
60014;SDS011;45867;52.480;6.056;2023-04-25T20:53:38;9.13;;;4.20;;
60014;SDS011;45867;52.480;6.056;2023-04-25T20:56:09;11.32;;;4.75;;
60014;SDS011;45867;52.480;6.056;2023-04-25T20:58:35;16.52;;;5.60;;
60014;SDS011;45867;52.480;6.056;2023-04-25T21:01:01;14.65;;;5.53;;
60014;SDS011;45867;52.480;6.056;2023-04-25T21:03:27;23.45;;;5.97;;
60014;SDS011;45867;52.480;6.056;2023-04-25T21:05:53;9.00;;;5.00;;
60014;SDS011;45867;52.480;6.056;2023-04-25T21:08:18;10.40;;;5.07;;
60014;SDS011;45867;52.480;6.056;2023-04-25T21:10:44;12.27;;;5.18;;
60014;SDS011;45867;52.480;6.056;2023-04-25T21:13:09;12.43;;;5.22;;
60014;SDS011;45867;52.480;6.056;2023-04-25T21:15:36;16.15;;;5.03;;
60014;SDS011;45867;52.480;6.056;2023-04-25T21:18:04;17.42;;;5.85;;
60014;SDS011;45867;52.480;6.056;2023-04-25T21:20:38;17.30;;;5.53;;
60014;SDS011;45867;52.480;6.056;2023-04-25T21:23:04;17.65;;;6.65;;